Terminal Aerodrome Forecast
Issued by NWS Portland, ME

Home | Current Version | Previous Version | Text Only | Print | Product List | Glossary On
Versions: 1 2 3 4 5 6 7 8 9 10 11 12 13 14 15 16 17 18
828
FTUS41 KGYX 241724
TAFCON
TAF
KCON 241724Z 2418/2518 05005KT P6SM FEW250
     FM251000 06006KT P6SM SCT025 BKN050 OVC100
     FM251500 08008KT 5SM -RA BKN025 OVC050=

USA.gov is the U.S. government's official web portal to all federal, state and local government web resources and services.